sensor_id;sensor_type;location;lat;lon;timestamp;pressure;altitude;pressure_sealevel;temperature;humidity
13367;BME280;6752;52.612;13.630;2023-07-09T00:03:14;101387.56;;;16.50;86.20
13367;BME280;6752;52.612;13.630;2023-07-09T00:08:28;101386.87;;;16.42;86.40
13367;BME280;6752;52.612;13.630;2023-07-09T00:13:28;101385.58;;;16.33;88.28
13367;BME280;6752;52.612;13.630;2023-07-09T00:18:31;101381.39;;;16.37;87.35
13367;BME280;6752;52.612;13.630;2023-07-09T00:23:33;101379.36;;;16.52;82.16
13367;BME280;6752;52.612;13.630;2023-07-09T00:28:35;101381.06;;;16.10;90.54
13367;BME280;6752;52.612;13.630;2023-07-09T00:33:37;101374.66;;;16.01;91.65
13367;BME280;6752;52.612;13.630;2023-07-09T00:38:40;101379.66;;;16.21;86.87
13367;BME280;6752;52.612;13.630;2023-07-09T00:43:42;101379.50;;;15.96;92.21
13367;BME280;6752;52.612;13.630;2023-07-09T00:48:49;101381.94;;;15.78;90.60
13367;BME280;6752;52.612;13.630;2023-07-09T00:53:48;101374.47;;;15.81;90.68
13367;BME280;6752;52.612;13.630;2023-07-09T00:58:49;101363.42;;;15.79;89.42
13367;BME280;6752;52.612;13.630;2023-07-09T01:03:52;101358.34;;;15.73;90.47
13367;BME280;6752;52.612;13.630;2023-07-09T01:08:54;101356.25;;;15.72;89.67
13367;BME280;6752;52.612;13.630;2023-07-09T01:14:00;101357.75;;;15.65;91.98
13367;BME280;6752;52.612;13.630;2023-07-09T01:19:01;101353.99;;;15.54;92.55
13367;BME280;6752;52.612;13.630;2023-07-09T01:24:13;101352.22;;;15.33;95.00
13367;BME280;6752;52.612;13.630;2023-07-09T01:29:15;101349.52;;;15.39;94.73
13367;BME280;6752;52.612;13.630;2023-07-09T01:34:17;101357.00;;;15.38;95.18
13367;BME280;6752;52.612;13.630;2023-07-09T01:39:19;101358.11;;;15.48;90.91
13367;BME280;6752;52.612;13.630;2023-07-09T01:44:21;101363.75;;;15.32;92.35
13367;BME280;6752;52.612;13.630;2023-07-09T01:49:24;101362.48;;;15.26;96.59
13367;BME280;6752;52.612;13.630;2023-07-09T01:54:28;101356.95;;;15.35;96.04
13367;BME280;6752;52.612;13.630;2023-07-09T01:59:28;101355.75;;;15.37;98.17
13367;BME280;6752;52.612;13.630;2023-07-09T02:04:31;101355.55;;;15.50;99.07
13367;BME280;6752;52.612;13.630;2023-07-09T02:09:33;101355.55;;;15.38;94.99
13367;BME280;6752;52.612;13.630;2023-07-09T02:14:37;101360.03;;;15.15;97.22
13367;BME280;6752;52.612;13.630;2023-07-09T02:19:38;101370.05;;;14.95;97.79
13367;BME280;6752;52.612;13.630;2023-07-09T02:24:40;101383.34;;;14.94;96.57
13367;BME280;6752;52.612;13.630;2023-07-09T02:29:43;101383.81;;;14.91;99.21
13367;BME280;6752;52.612;13.630;2023-07-09T02:34:45;101383.59;;;14.89;99.80
13367;BME280;6752;52.612;13.630;2023-07-09T02:39:48;101386.19;;;14.79;100.00
13367;BME280;6752;52.612;13.630;2023-07-09T02:44:50;101383.66;;;14.86;100.00
13367;BME280;6752;52.612;13.630;2023-07-09T02:49:52;101386.52;;;14.85;100.00
13367;BME280;6752;52.612;13.630;2023-07-09T02:54:54;101387.96;;;14.73;100.00
13367;BME280;6752;52.612;13.630;2023-07-09T02:59:57;101388.66;;;14.68;100.00
13367;BME280;6752;52.612;13.630;2023-07-09T03:04:59;101384.43;;;14.69;100.00
13367;BME280;6752;52.612;13.630;2023-07-09T03:10:01;101389.92;;;14.69;100.00
13367;BME280;6752;52.612;13.630;2023-07-09T03:15:04;101398.02;;;14.61;100.00
13367;BME280;6752;52.612;13.630;2023-07-09T03:20:06;101394.00;;;14.54;100.00
13367;BME280;6752;52.612;13.630;2023-07-09T03:25:09;101392.12;;;14.61;100.00
13367;BME280;6752;52.612;13.630;2023-07-09T03:30:11;101396.91;;;14.65;100.00
13367;BME280;6752;52.612;13.630;2023-07-09T03:35:13;101387.31;;;14.74;100.00
13367;BME280;6752;52.612;13.630;2023-07-09T03:40:21;101387.95;;;14.97;100.00
13367;BME280;6752;52.612;13.630;2023-07-09T03:45:18;101395.53;;;14.98;100.00
13367;BME280;6752;52.612;13.630;2023-07-09T03:50:21;101391.19;;;15.15;100.00
13367;BME280;6752;52.612;13.630;2023-07-09T03:55:23;101399.63;;;15.28;100.00
13367;BME280;6752;52.612;13.630;2023-07-09T04:00:25;101392.87;;;15.43;100.00
13367;BME280;6752;52.612;13.630;2023-07-09T04:05:27;101399.22;;;15.64;100.00
13367;BME280;6752;52.612;13.630;2023-07-09T04:10:30;101403.59;;;15.92;100.00
13367;BME280;6752;52.612;13.630;2023-07-09T04:15:32;101398.33;;;16.14;100.00
13367;BME280;6752;52.612;13.630;2023-07-09T04:20:34;101401.58;;;16.42;100.00
13367;BME280;6752;52.612;13.630;2023-07-09T04:25:37;101416.37;;;16.65;100.00
13367;BME280;6752;52.612;13.630;2023-07-09T04:30:44;101413.55;;;16.94;100.00
13367;BME280;6752;52.612;13.630;2023-07-09T04:35:42;101406.36;;;17.36;100.00
13367;BME280;6752;52.612;13.630;2023-07-09T04:40:44;101399.00;;;17.78;100.00
13367;BME280;6752;52.612;13.630;2023-07-09T04:45:47;101405.49;;;18.16;97.08
13367;BME280;6752;52.612;13.630;2023-07-09T04:50:49;101413.77;;;18.55;92.30
13367;BME280;6752;52.612;13.630;2023-07-09T04:55:51;101414.42;;;18.70;89.38
13367;BME280;6752;52.612;13.630;2023-07-09T05:00:56;101421.92;;;19.10;87.09
13367;BME280;6752;52.612;13.630;2023-07-09T05:05:56;101421.77;;;19.36;82.75
13367;BME280;6752;52.612;13.630;2023-07-09T05:10:58;101417.55;;;19.66;82.07
13367;BME280;6752;52.612;13.630;2023-07-09T05:16:01;101408.93;;;19.97;79.93
13367;BME280;6752;52.612;13.630;2023-07-09T05:21:03;101417.61;;;20.55;78.10
13367;BME280;6752;52.612;13.630;2023-07-09T05:26:05;101419.00;;;20.84;77.52
13367;BME280;6752;52.612;13.630;2023-07-09T05:31:08;101414.94;;;21.22;73.30
13367;BME280;6752;52.612;13.630;2023-07-09T05:36:10;101415.31;;;21.59;73.59
13367;BME280;6752;52.612;13.630;2023-07-09T05:41:15;101403.34;;;22.19;70.67
13367;BME280;6752;52.612;13.630;2023-07-09T05:46:17;101408.12;;;22.54;67.61
13367;BME280;6752;52.612;13.630;2023-07-09T05:51:20;101413.53;;;22.97;67.18
13367;BME280;6752;52.612;13.630;2023-07-09T05:56:22;101408.08;;;23.26;65.61
13367;BME280;6752;52.612;13.630;2023-07-09T06:01:24;101410.16;;;23.83;65.01
13367;BME280;6752;52.612;13.630;2023-07-09T06:06:26;101417.14;;;24.10;63.16
13367;BME280;6752;52.612;13.630;2023-07-09T06:11:28;101425.86;;;24.17;62.85
13367;BME280;6752;52.612;13.630;2023-07-09T06:16:30;101418.82;;;24.52;61.40
13367;BME280;6752;52.612;13.630;2023-07-09T06:21:33;101420.50;;;24.86;62.07
13367;BME280;6752;52.612;13.630;2023-07-09T06:26:35;101429.67;;;25.29;60.75
13367;BME280;6752;52.612;13.630;2023-07-09T06:31:38;101420.61;;;25.84;61.24
13367;BME280;6752;52.612;13.630;2023-07-09T06:36:40;101419.91;;;25.99;56.96
13367;BME280;6752;52.612;13.630;2023-07-09T06:41:42;101422.24;;;26.34;58.36
13367;BME280;6752;52.612;13.630;2023-07-09T06:46:45;101423.45;;;26.51;57.27
13367;BME280;6752;52.612;13.630;2023-07-09T06:51:47;101437.11;;;27.32;58.15
13367;BME280;6752;52.612;13.630;2023-07-09T06:56:50;101430.52;;;27.80;56.10
13367;BME280;6752;52.612;13.630;2023-07-09T07:01:52;101433.83;;;27.82;56.08
13367;BME280;6752;52.612;13.630;2023-07-09T07:06:54;101438.66;;;28.01;55.72
13367;BME280;6752;52.612;13.630;2023-07-09T07:11:57;101430.01;;;28.86;55.12
13367;BME280;6752;52.612;13.630;2023-07-09T07:16:59;101432.35;;;29.56;53.07
13367;BME280;6752;52.612;13.630;2023-07-09T07:22:01;101430.13;;;29.69;53.20
13367;BME280;6752;52.612;13.630;2023-07-09T07:27:04;101428.77;;;29.31;51.90
13367;BME280;6752;52.612;13.630;2023-07-09T07:32:06;101429.13;;;30.31;51.37
13367;BME280;6752;52.612;13.630;2023-07-09T07:37:09;101426.89;;;30.45;51.29
13367;BME280;6752;52.612;13.630;2023-07-09T07:42:11;101416.41;;;30.82;47.55
13367;BME280;6752;52.612;13.630;2023-07-09T07:47:14;101414.86;;;30.74;50.04
13367;BME280;6752;52.612;13.630;2023-07-09T07:52:16;101416.11;;;32.39;47.54
13367;BME280;6752;52.612;13.630;2023-07-09T07:57:18;101415.61;;;32.48;48.04
13367;BME280;6752;52.612;13.630;2023-07-09T08:02:21;101408.12;;;31.69;46.19
13367;BME280;6752;52.612;13.630;2023-07-09T08:07:23;101399.57;;;32.93;44.30
13367;BME280;6752;52.612;13.630;2023-07-09T08:12:26;101396.59;;;30.51;43.37
13367;BME280;6752;52.612;13.630;2023-07-09T08:17:28;101407.73;;;32.47;44.26
13367;BME280;6752;52.612;13.630;2023-07-09T08:22:30;101398.00;;;33.07;42.76
13367;BME280;6752;52.612;13.630;2023-07-09T08:27:33;101394.81;;;33.09;41.85
13367;BME280;6752;52.612;13.630;2023-07-09T08:32:35;101399.73;;;34.00;41.44
13367;BME280;6752;52.612;13.630;2023-07-09T08:37:37;101396.42;;;34.91;40.46
13367;BME280;6752;52.612;13.630;2023-07-09T08:42:41;101402.71;;;33.42;39.39
13367;BME280;6752;52.612;13.630;2023-07-09T08:48:00;101396.33;;;34.72;39.63
13367;BME280;6752;52.612;13.630;2023-07-09T08:52:59;101404.08;;;32.59;42.45
13367;BME280;6752;52.612;13.630;2023-07-09T08:58:10;101387.52;;;34.42;38.47
13367;BME280;6752;52.612;13.630;2023-07-09T09:03:22;101383.19;;;33.37;38.64
13367;BME280;6752;52.612;13.630;2023-07-09T09:08:44;101388.83;;;33.51;40.89
13367;BME280;6752;52.612;13.630;2023-07-09T09:13:39;101394.25;;;33.23;41.76
13367;BME280;6752;52.612;13.630;2023-07-09T09:18:41;101398.73;;;32.56;40.79
13367;BME280;6752;52.612;13.630;2023-07-09T09:23:46;101401.20;;;32.45;40.75
13367;BME280;6752;52.612;13.630;2023-07-09T09:28:46;101393.52;;;33.19;39.14
13367;BME280;6752;52.612;13.630;2023-07-09T09:33:48;101394.08;;;33.64;39.09
13367;BME280;6752;52.612;13.630;2023-07-09T09:38:50;101396.84;;;35.84;38.82
13367;BME280;6752;52.612;13.630;2023-07-09T09:43:53;101397.03;;;32.53;38.43
13367;BME280;6752;52.612;13.630;2023-07-09T09:48:58;101394.52;;;35.05;39.43
13367;BME280;6752;52.612;13.630;2023-07-09T09:53:58;101389.96;;;36.06;36.10
13367;BME280;6752;52.612;13.630;2023-07-09T09:59:00;101389.58;;;34.68;40.40
13367;BME280;6752;52.612;13.630;2023-07-09T10:04:03;101392.75;;;33.88;39.40
13367;BME280;6752;52.612;13.630;2023-07-09T10:09:11;101396.87;;;37.04;39.43
13367;BME280;6752;52.612;13.630;2023-07-09T10:19:40;101390.38;;;37.82;37.42
13367;BME280;6752;52.612;13.630;2023-07-09T10:30:01;101371.16;;;39.13;36.84
13367;BME280;6752;52.612;13.630;2023-07-09T10:35:15;101371.30;;;34.48;36.11
13367;BME280;6752;52.612;13.630;2023-07-09T10:40:14;101377.09;;;37.13;36.76
13367;BME280;6752;52.612;13.630;2023-07-09T10:45:22;101380.67;;;38.75;38.91
13367;BME280;6752;52.612;13.630;2023-07-09T10:50:34;101376.34;;;39.32;36.71
13367;BME280;6752;52.612;13.630;2023-07-09T10:55:39;101367.20;;;38.45;36.13
13367;BME280;6752;52.612;13.630;2023-07-09T11:00:39;101364.77;;;39.47;34.54
13367;BME280;6752;52.612;13.630;2023-07-09T11:05:40;101342.36;;;39.51;33.28
13367;BME280;6752;52.612;13.630;2023-07-09T11:11:03;101351.58;;;38.50;33.79
13367;BME280;6752;52.612;13.630;2023-07-09T11:16:03;101354.94;;;39.98;33.74
13367;BME280;6752;52.612;13.630;2023-07-09T11:21:16;101356.84;;;36.62;35.39
13367;BME280;6752;52.612;13.630;2023-07-09T11:26:30;101353.66;;;37.53;34.27
13367;BME280;6752;52.612;13.630;2023-07-09T11:31:34;101341.95;;;36.81;34.24
13367;BME280;6752;52.612;13.630;2023-07-09T11:36:34;101335.37;;;38.89;36.04
13367;BME280;6752;52.612;13.630;2023-07-09T11:41:45;101315.99;;;38.53;32.34
13367;BME280;6752;52.612;13.630;2023-07-09T11:57:38;101310.47;;;37.77;33.44
13367;BME280;6752;52.612;13.630;2023-07-09T12:02:40;101300.88;;;37.72;32.59
13367;BME280;6752;52.612;13.630;2023-07-09T12:07:42;101307.48;;;37.85;35.16
13367;BME280;6752;52.612;13.630;2023-07-09T12:12:45;101307.72;;;36.86;33.78
13367;BME280;6752;52.612;13.630;2023-07-09T12:17:57;101300.55;;;36.54;34.50
13367;BME280;6752;52.612;13.630;2023-07-09T12:22:56;101294.19;;;37.22;34.51
13367;BME280;6752;52.612;13.630;2023-07-09T12:28:02;101286.39;;;37.86;35.61
13367;BME280;6752;52.612;13.630;2023-07-09T12:33:01;101282.70;;;36.29;33.52
13367;BME280;6752;52.612;13.630;2023-07-09T12:38:03;101283.75;;;36.98;35.94
13367;BME280;6752;52.612;13.630;2023-07-09T12:43:07;101292.20;;;36.15;37.56
13367;BME280;6752;52.612;13.630;2023-07-09T12:48:08;101270.48;;;36.25;33.58
13367;BME280;6752;52.612;13.630;2023-07-09T12:53:14;101266.42;;;35.15;34.12
13367;BME280;6752;52.612;13.630;2023-07-09T12:58:19;101284.95;;;35.93;36.40
13367;BME280;6752;52.612;13.630;2023-07-09T13:03:24;101262.69;;;37.03;35.93
13367;BME280;6752;52.612;13.630;2023-07-09T13:08:27;101261.66;;;35.94;34.66
13367;BME280;6752;52.612;13.630;2023-07-09T13:13:25;101250.14;;;35.00;34.61
13367;BME280;6752;52.612;13.630;2023-07-09T13:18:28;101251.95;;;35.39;33.81
13367;BME280;6752;52.612;13.630;2023-07-09T13:23:30;101257.69;;;35.23;35.78
13367;BME280;6752;52.612;13.630;2023-07-09T13:28:33;101247.47;;;36.05;34.10
13367;BME280;6752;52.612;13.630;2023-07-09T13:33:35;101250.37;;;35.22;35.48
13367;BME280;6752;52.612;13.630;2023-07-09T13:38:37;101245.00;;;35.35;34.64
13367;BME280;6752;52.612;13.630;2023-07-09T13:43:39;101245.32;;;35.64;36.68
13367;BME280;6752;52.612;13.630;2023-07-09T13:48:43;101224.30;;;33.14;35.32
13367;BME280;6752;52.612;13.630;2023-07-09T13:53:44;101230.93;;;34.36;34.71
13367;BME280;6752;52.612;13.630;2023-07-09T13:58:46;101227.95;;;34.56;34.27
13367;BME280;6752;52.612;13.630;2023-07-09T14:03:48;101231.09;;;34.80;34.62
13367;BME280;6752;52.612;13.630;2023-07-09T14:08:51;101234.36;;;34.04;35.83
13367;BME280;6752;52.612;13.630;2023-07-09T14:13:53;101244.08;;;34.90;37.84
13367;BME280;6752;52.612;13.630;2023-07-09T14:18:55;101219.58;;;33.79;35.45
13367;BME280;6752;52.612;13.630;2023-07-09T14:23:58;101218.35;;;33.54;36.37
13367;BME280;6752;52.612;13.630;2023-07-09T14:29:00;101218.05;;;33.66;37.11
13367;BME280;6752;52.612;13.630;2023-07-09T14:39:14;101219.62;;;33.27;37.63
13367;BME280;6752;52.612;13.630;2023-07-09T14:44:28;101221.36;;;34.17;38.27
13367;BME280;6752;52.612;13.630;2023-07-09T14:49:30;101218.12;;;33.53;36.17
13367;BME280;6752;52.612;13.630;2023-07-09T14:54:32;101234.17;;;33.41;39.91
13367;BME280;6752;52.612;13.630;2023-07-09T14:59:35;101223.33;;;33.44;39.85
13367;BME280;6752;52.612;13.630;2023-07-09T15:04:37;101222.69;;;33.74;39.44
13367;BME280;6752;52.612;13.630;2023-07-09T15:09:39;101212.69;;;33.17;35.93
13367;BME280;6752;52.612;13.630;2023-07-09T15:14:42;101220.28;;;33.66;37.14
13367;BME280;6752;52.612;13.630;2023-07-09T15:19:44;101205.12;;;33.21;37.55
13367;BME280;6752;52.612;13.630;2023-07-09T15:24:47;101196.66;;;32.14;36.53
13367;BME280;6752;52.612;13.630;2023-07-09T15:29:49;101187.26;;;32.35;38.07
13367;BME280;6752;52.612;13.630;2023-07-09T15:34:51;101181.42;;;32.48;37.77
13367;BME280;6752;52.612;13.630;2023-07-09T15:39:54;101184.62;;;32.54;40.29
13367;BME280;6752;52.612;13.630;2023-07-09T15:44:56;101174.17;;;32.22;36.58
13367;BME280;6752;52.612;13.630;2023-07-09T15:49:59;101172.74;;;32.89;37.11
13367;BME280;6752;52.612;13.630;2023-07-09T15:55:01;101163.10;;;32.56;37.86
13367;BME280;6752;52.612;13.630;2023-07-09T16:00:12;101160.31;;;32.49;38.56
13367;BME280;6752;52.612;13.630;2023-07-09T16:05:24;101155.30;;;32.31;39.87
13367;BME280;6752;52.612;13.630;2023-07-09T16:10:26;101158.18;;;32.32;41.54
13367;BME280;6752;52.612;13.630;2023-07-09T16:15:29;101146.88;;;31.94;40.54
13367;BME280;6752;52.612;13.630;2023-07-09T16:20:31;101143.72;;;31.89;40.88
13367;BME280;6752;52.612;13.630;2023-07-09T16:25:34;101134.31;;;31.55;41.34
13367;BME280;6752;52.612;13.630;2023-07-09T16:30:36;101128.73;;;31.38;42.78
13367;BME280;6752;52.612;13.630;2023-07-09T16:35:38;101127.52;;;31.21;42.34
13367;BME280;6752;52.612;13.630;2023-07-09T16:40:40;101113.48;;;30.88;41.75
13367;BME280;6752;52.612;13.630;2023-07-09T16:45:43;101109.30;;;30.57;41.38
13367;BME280;6752;52.612;13.630;2023-07-09T16:50:45;101112.98;;;30.53;42.82
13367;BME280;6752;52.612;13.630;2023-07-09T16:55:48;101116.30;;;30.34;42.88
13367;BME280;6752;52.612;13.630;2023-07-09T17:00:50;101121.85;;;30.32;43.09
13367;BME280;6752;52.612;13.630;2023-07-09T17:05:52;101127.52;;;30.24;43.77
13367;BME280;6752;52.612;13.630;2023-07-09T17:10:55;101127.55;;;29.94;44.50
13367;BME280;6752;52.612;13.630;2023-07-09T17:15:57;101126.38;;;29.70;44.60
13367;BME280;6752;52.612;13.630;2023-07-09T17:21:00;101131.63;;;29.46;45.97
13367;BME280;6752;52.612;13.630;2023-07-09T17:26:02;101127.19;;;29.37;46.22
13367;BME280;6752;52.612;13.630;2023-07-09T17:31:04;101134.61;;;29.33;47.74
13367;BME280;6752;52.612;13.630;2023-07-09T17:36:08;101126.94;;;29.08;48.02
13367;BME280;6752;52.612;13.630;2023-07-09T17:41:08;101134.92;;;28.93;49.44
13367;BME280;6752;52.612;13.630;2023-07-09T17:46:10;101150.16;;;28.81;49.17
13367;BME280;6752;52.612;13.630;2023-07-09T17:51:12;101156.39;;;28.67;49.70
13367;BME280;6752;52.612;13.630;2023-07-09T17:56:18;101161.75;;;28.45;50.59
13367;BME280;6752;52.612;13.630;2023-07-09T18:01:17;101155.22;;;28.38;50.38
13367;BME280;6752;52.612;13.630;2023-07-09T18:06:20;101173.83;;;28.21;52.75
13367;BME280;6752;52.612;13.630;2023-07-09T18:11:26;101177.91;;;28.02;53.23
13367;BME280;6752;52.612;13.630;2023-07-09T18:16:25;101172.55;;;27.94;50.66
13367;BME280;6752;52.612;13.630;2023-07-09T18:21:27;101165.15;;;27.74;51.75
13367;BME280;6752;52.612;13.630;2023-07-09T18:26:30;101176.64;;;27.49;55.16
13367;BME280;6752;52.612;13.630;2023-07-09T18:31:32;101167.00;;;27.32;53.62
13367;BME280;6752;52.612;13.630;2023-07-09T18:36:35;101158.32;;;27.23;54.64
13367;BME280;6752;52.612;13.630;2023-07-09T18:41:37;101155.84;;;27.10;54.71
13367;BME280;6752;52.612;13.630;2023-07-09T18:46:39;101174.80;;;26.80;61.03
13367;BME280;6752;52.612;13.630;2023-07-09T18:51:42;101175.77;;;26.57;61.84
13367;BME280;6752;52.612;13.630;2023-07-09T18:56:45;101184.82;;;26.33;61.54
13367;BME280;6752;52.612;13.630;2023-07-09T19:01:47;101174.20;;;26.01;62.00
13367;BME280;6752;52.612;13.630;2023-07-09T19:06:49;101169.52;;;25.78;61.34
13367;BME280;6752;52.612;13.630;2023-07-09T19:11:51;101179.58;;;25.43;62.50
13367;BME280;6752;52.612;13.630;2023-07-09T19:16:57;101175.36;;;25.29;62.21
13367;BME280;6752;52.612;13.630;2023-07-09T19:21:59;101178.61;;;25.20;62.34
13367;BME280;6752;52.612;13.630;2023-07-09T19:27:01;101189.46;;;24.95;66.39
13367;BME280;6752;52.612;13.630;2023-07-09T19:32:05;101190.08;;;24.67;67.35
13367;BME280;6752;52.612;13.630;2023-07-09T19:37:16;101195.94;;;24.40;66.02
13367;BME280;6752;52.612;13.630;2023-07-09T19:42:12;101196.67;;;24.24;65.62
13367;BME280;6752;52.612;13.630;2023-07-09T19:47:20;101184.64;;;24.07;65.61
13367;BME280;6752;52.612;13.630;2023-07-09T19:52:22;101178.58;;;23.93;66.71
13367;BME280;6752;52.612;13.630;2023-07-09T19:57:24;101185.17;;;23.64;70.77
13367;BME280;6752;52.612;13.630;2023-07-09T20:02:26;101178.21;;;22.96;69.71
13367;BME280;6752;52.612;13.630;2023-07-09T20:07:29;101173.25;;;23.05;70.08
13367;BME280;6752;52.612;13.630;2023-07-09T20:12:31;101164.00;;;22.84;66.04
13367;BME280;6752;52.612;13.630;2023-07-09T20:17:33;101169.97;;;22.62;64.94
13367;BME280;6752;52.612;13.630;2023-07-09T20:22:36;101162.59;;;22.81;63.10
13367;BME280;6752;52.612;13.630;2023-07-09T20:27:38;101169.33;;;22.55;66.36
13367;BME280;6752;52.612;13.630;2023-07-09T20:32:41;101162.11;;;22.13;69.94
13367;BME280;6752;52.612;13.630;2023-07-09T20:37:43;101172.55;;;21.99;70.88
13367;BME280;6752;52.612;13.630;2023-07-09T20:42:45;101179.59;;;22.13;66.76
13367;BME280;6752;52.612;13.630;2023-07-09T20:47:48;101190.55;;;22.14;67.03
13367;BME280;6752;52.612;13.630;2023-07-09T20:52:50;101189.02;;;22.15;69.19
13367;BME280;6752;52.612;13.630;2023-07-09T20:57:54;101195.53;;;21.82;73.56
13367;BME280;6752;52.612;13.630;2023-07-09T21:02:55;101196.78;;;21.75;73.88
13367;BME280;6752;52.612;13.630;2023-07-09T21:07:57;101198.19;;;21.73;72.82
13367;BME280;6752;52.612;13.630;2023-07-09T21:13:00;101197.03;;;21.44;73.99
13367;BME280;6752;52.612;13.630;2023-07-09T21:18:03;101192.88;;;21.19;76.22
13367;BME280;6752;52.612;13.630;2023-07-09T21:23:07;101185.00;;;21.11;74.03
13367;BME280;6752;52.612;13.630;2023-07-09T21:28:06;101193.86;;;21.16;75.54
13367;BME280;6752;52.612;13.630;2023-07-09T21:33:12;101184.88;;;21.07;76.55
13367;BME280;6752;52.612;13.630;2023-07-09T21:38:20;101180.83;;;20.81;74.00
13367;BME280;6752;52.612;13.630;2023-07-09T21:43:22;101174.61;;;20.69;68.04
13367;BME280;6752;52.612;13.630;2023-07-09T21:48:25;101180.45;;;20.83;66.61
13367;BME280;6752;52.612;13.630;2023-07-09T21:53:27;101177.39;;;20.90;67.33
13367;BME280;6752;52.612;13.630;2023-07-09T21:58:29;101177.24;;;20.65;72.32
13367;BME280;6752;52.612;13.630;2023-07-09T22:03:32;101180.71;;;20.61;71.19
13367;BME280;6752;52.612;13.630;2023-07-09T22:08:34;101179.87;;;20.73;70.50
13367;BME280;6752;52.612;13.630;2023-07-09T22:13:36;101172.81;;;20.61;72.13
13367;BME280;6752;52.612;13.630;2023-07-09T22:18:39;101171.16;;;20.63;72.45
13367;BME280;6752;52.612;13.630;2023-07-09T22:23:41;101174.48;;;20.62;74.00
13367;BME280;6752;52.612;13.630;2023-07-09T22:28:43;101175.86;;;20.67;74.69
13367;BME280;6752;52.612;13.630;2023-07-09T22:33:46;101175.97;;;20.44;85.08
13367;BME280;6752;52.612;13.630;2023-07-09T22:38:48;101179.77;;;20.28;76.02
13367;BME280;6752;52.612;13.630;2023-07-09T22:43:51;101175.80;;;20.39;69.09
13367;BME280;6752;52.612;13.630;2023-07-09T22:48:53;101183.50;;;20.20;70.99
13367;BME280;6752;52.612;13.630;2023-07-09T22:53:55;101183.65;;;20.29;66.17
13367;BME280;6752;52.612;13.630;2023-07-09T22:58:58;101179.50;;;20.32;64.27
13367;BME280;6752;52.612;13.630;2023-07-09T23:04:00;101185.99;;;20.21;66.13
13367;BME280;6752;52.612;13.630;2023-07-09T23:09:02;101187.99;;;19.97;69.85
13367;BME280;6752;52.612;13.630;2023-07-09T23:14:21;101184.41;;;20.07;66.45
13367;BME280;6752;52.612;13.630;2023-07-09T23:19:27;101175.84;;;20.11;65.99
13367;BME280;6752;52.612;13.630;2023-07-09T23:24:24;101185.43;;;20.17;67.19
13367;BME280;6752;52.612;13.630;2023-07-09T23:29:27;101190.38;;;20.09;69.24
13367;BME280;6752;52.612;13.630;2023-07-09T23:34:29;101183.98;;;20.01;70.66
13367;BME280;6752;52.612;13.630;2023-07-09T23:39:31;101188.28;;;20.01;71.99
13367;BME280;6752;52.612;13.630;2023-07-09T23:44:34;101185.58;;;19.87;75.75
13367;BME280;6752;52.612;13.630;2023-07-09T23:49:36;101182.34;;;19.48;77.83
13367;BME280;6752;52.612;13.630;2023-07-09T23:54:39;101178.27;;;19.61;76.34
13367;BME280;6752;52.612;13.630;2023-07-09T23:59:41;101178.95;;;19.57;74.34
